Latest Weather Observations for McArthur River Mine

IDD60801

Issued at 5:31 pm CST Tuesday 28 February 2017 (issued every 30 minutes, with the page automatically refreshed every 10 minutes)

About weather observations | Map of weather stations | Latest weather observations for NT | Other Formats
Station Details ID: 014704 Name: MCARTHUR RIVER MINE AIRPORT Lat: -16.44 Lon: 136.08 Height: 40.0 m
Data from the previous 72 hours. | See also: Recent months at McArthur River Mine
Date/Time
CST
Temp
°C
App
Temp
°C
Dew
Point
°C
Rel
Hum
%
Delta-T
°C
Wind Press
QNH
hPa
Press
MSL
hPa
Rain since
9am
mm
Dir  Spd
km/h
Gust
km/h
Spd
kts
Gust
kts
28/05:30pm 34.1 37.2 23.5 54 7.4 NNE 13 20 7 11 1006.5 1006.2 0.0
28/05:00pm 35.2 36.6 21.1 43 9.6 NE 15 20 8 11 1006.2 1005.9 0.0
28/04:30pm 35.2 37.2 20.7 42 9.8 NE 11 20 6 11 1006.3 1006.0 0.0
28/04:00pm 34.9 36.2 20.1 42 9.9 ENE 13 20 7 11 1006.4 1006.1 0.0
28/03:30pm 35.7 38.7 22.6 46 9.1 NE 11 20 6 11 1006.7 1006.4 0.0
28/03:00pm 35.5 36.8 20.2 40 10.3 ENE 13 20 7 11 1007.0 1006.7 0.0
28/02:30pm 36.0 37.0 19.4 37 11.0 E 13 26 7 14 1007.2 1006.9 0.0
28/02:00pm 35.1 38.0 21.7 45 9.1 SE 9 15 5 8 1007.5 1007.2 0.0
28/01:30pm 35.1 37.2 20.2 41 10.0 E 9 17 5 9 1007.9 1007.6 0.0
28/01:00pm 34.2 35.4 19.8 42 9.6 NNE 13 19 7 10 1008.3 1008.0 0.0
28/12:30pm 34.6 37.4 21.6 46 8.9 ENE 9 17 5 9 1008.8 1008.5 0.0
28/12:00pm 34.4 37.3 22.5 50 8.2 ESE 11 20 6 11 1009.2 1008.9 0.0
28/11:30am 33.8 37.5 23.2 54 7.4 E 9 19 5 10 1009.6 1009.3 0.0
28/11:00am 33.0 36.6 23.0 55 6.9 ENE 9 15 5 8 1009.9 1009.6 0.0
28/10:30am 32.3 36.5 23.5 59 6.1 SE 7 11 4 6 1009.9 1009.6 0.0
28/10:00am 31.1 35.7 24.2 66 4.8 S 7 11 4 6 1010.0 1009.7 0.0
28/09:30am 30.3 35.1 24.4 70 4.1 SSW 7 11 4 6 1010.2 1009.9 0.0
28/09:00am 28.9 33.4 24.0 75 3.4 SSW 7 11 4 6 1010.2 1009.9 0.0
28/08:30am 27.8 33.3 24.6 83 2.2 S 4 7 2 4 1010.2 1009.9 0.0
28/08:00am 27.0 32.3 25.0 89 1.4 S 6 7 3 4 1009.8 1009.5 0.0
28/07:30am 25.5 31.5 24.3 93 0.8 CALM 0 0 0 0 1009.6 1009.3 0.0
28/07:00am 24.4 30.2 23.9 97 0.3 CALM 0 0 0 0 1009.5 1009.2 0.0
28/06:30am 24.2 29.1 23.7 97 0.3 WSW 4 6 2 3 1009.4 1009.1 0.0
28/06:00am 24.5 29.2 24.0 97 0.3 WSW 6 7 3 4 1009.2 1008.9 0.0
28/05:30am 24.5 30.2 23.8 96 0.5 CALM 0 0 0 0 1009.2 1008.9 0.0
28/05:00am 24.7 30.4 23.8 95 0.6 CALM 0 0 0 0 1008.9 1008.6 0.0
28/04:30am 25.1 30.9 23.9 93 0.8 CALM 0 0 0 0 1008.9 1008.6 0.0
28/04:00am 24.9 30.6 23.7 93 0.8 CALM 0 0 0 0 1009.0 1008.7 0.0
28/03:30am 25.3 31.1 23.9 92 1.0 CALM 0 0 0 0 1008.9 1008.6 0.0
28/03:00am 25.5 30.3 24.1 92 1.0 N 6 7 3 4 1009.1 1008.8 0.0
28/02:30am 25.7 31.6 24.1 91 1.1 CALM 0 0 0 0 1009.4 1009.1 0.0
28/02:00am 25.9 31.0 24.1 90 1.2 NNE 4 11 2 6 1009.5 1009.2 0.0
28/01:30am 26.3 32.1 24.0 87 1.6 CALM 0 0 0 0 1009.7 1009.4 0.0
28/01:00am 26.8 31.5 24.3 86 1.7 SSW 7 9 4 5 1009.9 1009.6 0.0
28/12:30am 27.0 32.9 24.1 84 2.0 CALM 0 0 0 0 1009.9 1009.6 0.0
28/12:00am 26.9 31.3 23.8 83 2.1 NE 7 9 4 5 1010.0 1009.7 0.0
 
Date/Time
CST
Temp
°C
App
Temp
°C
Dew
Point
°C
Rel
Hum
%
Delta-T
°C
Wind Press
QNH
hPa
Press
MSL
hPa
Rain since
9am
mm
Dir  Spd
km/h
Gust
km/h
Spd
kts
Gust
kts
27/11:30pm 27.1 32.5 23.3 80 2.6 CALM 0 0 0 0 1010.1 1009.8 0.0
27/11:00pm 27.6 33.1 23.4 78 2.9 CALM 0 0 0 0 1010.4 1010.1 0.0
27/10:30pm 28.1 32.5 23.5 76 3.2 N 6 9 3 5 1010.3 1010.0 0.0
27/10:00pm 28.4 32.6 23.5 75 3.4 N 7 11 4 6 1010.1 1009.8 0.0
27/09:30pm 28.9 33.3 23.8 74 3.5 NNE 7 11 4 6 1009.9 1009.6 0.0
27/09:00pm 29.4 33.2 24.0 72 3.7 NNE 11 15 6 8 1009.6 1009.3 0.0
27/08:30pm 29.5 33.6 23.2 69 4.3 N 7 11 4 6 1009.2 1008.9 0.0
27/08:00pm 30.0 33.6 22.4 63 5.2 N 7 9 4 5 1008.7 1008.4 0.0
27/07:30pm 30.7 34.4 22.3 61 5.7 N 6 7 3 4 1008.2 1007.9 0.0
27/07:00pm 31.3 34.7 22.0 57 6.3 NNE 7 11 4 6 1007.8 1007.5 0.0
27/06:30pm 32.4 35.1 21.3 52 7.5 NNE 9 13 5 7 1007.6 1007.3 0.0
27/06:00pm 32.9 34.7 21.1 50 8.0 NE 13 20 7 11 1007.4 1007.1 0.0
27/05:30pm 33.4 35.6 21.9 51 7.9 NE 13 20 7 11 1007.3 1007.0 0.0
27/05:00pm 33.4 35.8 22.2 52 7.7 ENE 13 20 7 11 1007.3 1007.0 0.0
27/04:30pm 33.4 35.2 21.2 48 8.3 NE 13 26 7 14 1007.5 1007.2 0.0
27/04:00pm 31.2 32.1 20.8 54 6.9 NE 17 24 9 13 1007.8 1007.5 0.0
27/03:38pm 31.8 28.8 16.9 40 9.4 NE 28 48 15 26 1007.7 1007.4 0.0
27/03:30pm 33.8 35.4 22.9 53 7.5 NNE 19 30 10 16 1007.8 1007.5 0.0
27/03:00pm 34.5 36.0 21.2 46 9.0 ENE 15 28 8 15 1007.3 1007.0 0.0
27/02:30pm 35.0 36.9 22.0 46 8.9 ENE 15 22 8 12 1007.9 1007.6 0.0
27/02:00pm 34.8 37.3 22.5 48 8.5 E 13 24 7 13 1008.3 1008.0 0.0
27/01:30pm 34.7 37.0 22.7 49 8.3 ESE 15 20 8 11 1008.8 1008.5 0.0
27/01:00pm 34.3 37.6 23.9 54 7.3 ESE 13 22 7 12 1009.2 1008.9 0.0
27/12:30pm 33.7 36.6 21.8 49 8.1 ESE 9 17 5 9 1009.5 1009.2 0.0
27/12:00pm 33.0 35.0 21.5 50 7.8 SE 13 20 7 11 1010.1 1009.8 0.0
27/11:30am 33.3 37.6 24.2 59 6.4 E 9 17 5 9 1010.3 1010.0 0.0
27/11:00am 32.3 35.8 23.5 59 6.1 E 11 20 6 11 1010.6 1010.3 0.0
27/10:30am 31.0 35.9 24.6 68 4.5 SE 7 11 4 6 1011.0 1010.7 0.0
27/10:00am 29.8 34.6 24.2 72 3.9 SSW 6 13 3 7 1011.2 1010.9 0.0
27/09:30am 29.4 35.5 25.6 80 2.7 SSW 4 11 2 6 1011.2 1010.9 0.0
27/09:00am 28.4 34.3 25.4 84 2.1 SSE 4 7 2 4 1011.0 1010.7 0.2
27/08:30am 27.3 32.2 24.7 86 1.8 SSE 7 11 4 6 1010.7 1010.4 0.2
27/08:00am 25.8 30.6 24.4 92 1.0 S 7 9 4 5 1010.4 1010.1 0.2
27/07:30am 24.9 29.4 24.0 95 0.6 SSW 7 9 4 5 1010.0 1009.7 0.2
27/07:00am 24.3 29.0 24.0 98 0.2 SW 6 7 3 4 1009.9 1009.6 0.2
27/06:30am 24.0 29.6 23.5 97 0.3 CALM 0 0 0 0 1009.2 1008.9 0.2
27/06:00am 24.1 29.7 23.6 97 0.3 CALM 0 0 0 0 1009.1 1008.8 0.2
27/05:48am 24.2 30.0 23.9 98 0.2 CALM 0 0 0 0 1009.1 1008.8 0.2
27/05:30am 24.2 30.0 23.9 98 0.2 CALM 0 0 0 0 1009.1 1008.8 0.2
27/05:15am 24.2 29.9 23.7 97 0.3 CALM 0 0 0 0 1009.1 1008.8 0.2
27/05:00am 24.1 29.7 23.6 97 0.3 CALM 0 0 0 0 1009.1 1008.8 0.2
27/04:30am 24.2 29.9 23.7 97 0.3 CALM 0 0 0 0 1009.0 1008.7 0.2
27/04:00am 24.3 29.3 23.8 97 0.3 W 4 7 2 4 1009.1 1008.8 0.2
27/03:30am 24.5 30.0 24.0 97 0.3 WNW 2 7 1 4 1009.4 1009.1 0.2
27/03:00am 24.6 30.4 23.9 96 0.5 CALM 0 6 0 3 1009.4 1009.1 0.2
27/02:30am 24.9 30.5 24.2 96 0.5 WSW 2 6 1 3 1009.6 1009.3 0.2
27/02:00am 25.1 30.0 24.4 96 0.5 SW 6 7 3 4 1009.5 1009.2 0.2
27/01:30am 25.2 30.5 24.3 95 0.6 SW 4 6 2 3 1009.6 1009.3 0.2
27/01:00am 25.3 31.4 24.4 95 0.6 CALM 0 6 0 3 1009.8 1009.5 0.2
27/12:30am 25.5 31.5 24.3 93 0.8 CALM 0 0 0 0 1010.0 1009.7 0.2
27/12:00am 25.4 31.5 24.4 94 0.7 CALM 0 0 0 0 1010.2 1009.9 0.2
 
Date/Time
CST
Temp
°C
App
Temp
°C
Dew
Point
°C
Rel
Hum
%
Delta-T
°C
Wind Press
QNH
hPa
Press
MSL
hPa
Rain since
9am
mm
Dir  Spd
km/h
Gust
km/h
Spd
kts
Gust
kts
26/11:30pm 25.4 31.4 24.2 93 0.8 CALM 0 0 0 0 1010.3 1010.0 0.2
26/11:00pm 25.7 31.6 24.1 91 1.1 CALM 0 6 0 3 1010.0 1009.7 0.2
26/10:30pm 25.8 30.6 24.2 91 1.1 SSW 6 9 3 5 1010.1 1009.8 0.2
26/10:00pm 25.8 30.5 24.0 90 1.2 WSW 6 7 3 4 1009.8 1009.5 0.2
26/09:30pm 25.8 30.2 23.8 89 1.4 SSE 7 9 4 5 1009.4 1009.1 0.2
26/09:00pm 25.9 30.6 23.9 89 1.4 SW 6 7 3 4 1008.9 1008.6 0.2
26/08:30pm 26.0 30.1 23.9 88 1.4 SSW 9 11 5 6 1008.6 1008.3 0.2
26/08:00pm 27.2 32.1 24.3 84 2.0 WSW 6 13 3 7 1008.3 1008.0 0.2
26/07:30pm 28.5 33.0 23.9 76 3.2 W 7 9 4 5 1008.0 1007.7 0.2
26/07:00pm 28.9 32.0 22.9 70 4.1 NNE 11 17 6 9 1007.5 1007.2 0.2
26/06:30pm 29.0 32.6 23.7 73 3.7 NNE 11 20 6 11 1007.7 1007.4 0.2
26/06:00pm 27.6 28.8 20.7 66 4.6 SSE 15 20 8 11 1008.3 1008.0 0.2
26/05:30pm 31.3 33.3 22.9 61 5.8 NE 17 26 9 14 1006.5 1006.2 0.2
26/05:00pm 31.2 32.5 21.7 57 6.4 NE 17 24 9 13 1006.2 1005.9 0.2
26/04:30pm 33.2 35.0 23.5 56 6.8 ENE 20 46 11 25 1006.2 1005.9 0.2
26/04:27pm 34.0 36.7 23.4 54 7.4 E 15 46 8 25 1006.0 1005.7 0.2
26/04:00pm 32.9 36.0 21.4 50 7.8 SSW 7 9 4 5 1006.1 1005.8 0.2
26/03:30pm 33.5 34.1 20.3 46 8.8 SSE 17 28 9 15 1006.1 1005.8 0.2
26/03:00pm 35.7 37.9 22.6 46 9.1 SE 15 24 8 13 1006.1 1005.8 0.2
26/02:30pm 35.3 38.1 22.3 47 9.0 ESE 11 17 6 9 1006.4 1006.1 0.2
26/02:00pm 35.2 38.7 23.5 50 8.2 S 11 17 6 9 1006.6 1006.3 0.2
26/01:30pm 34.6 36.0 18.6 38 10.5 S 9 13 5 7 1006.9 1006.6 0.2
26/01:00pm 34.0 35.5 18.9 41 9.9 SW 9 17 5 9 1007.2 1006.9 0.2
26/12:30pm 33.9 34.8 17.6 38 10.5 SE 9 17 5 9 1007.9 1007.6 0.2
26/12:00pm 33.1 34.2 18.1 41 9.7 SE 9 15 5 8 1008.4 1008.1 0.2
26/11:30am 32.7 34.3 19.2 44 8.9 SE 9 15 5 8 1008.9 1008.6 0.2
26/11:00am 31.8 36.4 24.1 63 5.4 SSE 7 13 4 7 1009.3 1009.0 0.2
26/10:30am 30.7 35.6 24.6 70 4.3 SSE 7 13 4 7 1009.5 1009.2 0.2
26/10:00am 29.8 35.1 24.4 73 3.8 SSW 4 9 2 5 1009.7 1009.4 0.2
26/09:30am 28.8 33.0 24.1 76 3.3 SSW 9 13 5 7 1009.7 1009.4 0.0
26/09:00am 27.9 32.1 24.1 80 2.6 SSW 9 11 5 6 1009.7 1009.4 7.0
26/08:30am 27.3 32.6 24.9 87 1.7 S 6 9 3 5 1009.8 1009.5 7.0
26/08:00am 26.3 31.2 24.3 89 1.4 SW 6 7 3 4 1009.6 1009.3 7.0
26/07:30am 25.4 30.5 24.7 96 0.5 WSW 6 7 3 4 1009.2 1008.9 7.0
26/07:00am 24.8 31.1 24.8 100 0.0 CALM 0 6 0 3 1008.9 1008.6 7.0
26/06:30am 24.7 31.0 24.7 100 0.0 CALM 0 0 0 0 1008.5 1008.2 7.0
26/06:00am 24.8 29.5 21.9 84 1.9 CALM 0 0 0 0 1008.1 1007.8 7.0
26/05:30am 24.8 30.7 24.1 96 0.5 CALM 0 0 0 0 1007.8 1007.5 7.0
26/05:00am 24.8 29.6 22.1 85 1.8 CALM 0 0 0 0 1007.8 1007.5 7.0
26/04:30am 25.0 28.6 22.3 85 1.8 SW 7 7 4 4 1007.8 1007.5 7.0
26/04:00am 24.9 30.1 22.8 88 1.4 CALM 0 0 0 0 1007.7 1007.4 7.0
26/03:30am 25.1 29.7 21.8 82 2.2 CALM 0 0 0 0 1007.6 1007.3 7.0
26/03:00am 25.1 29.7 21.8 82 2.2 CALM 0 0 0 0 1007.9 1007.6 7.0
26/02:30am 25.2 29.3 20.7 76 3.0 CALM 0 0 0 0 1008.2 1007.9 7.0
26/02:00am 25.2 30.6 25.2 100 0.0 N 6 7 3 4 1008.6 1008.3 7.0
26/01:30am 25.3 28.9 21.2 78 2.7 NE 4 7 2 4 1009.0 1008.7 7.0
26/01:00am 25.2 29.6 23.8 92 1.0 NE 7 9 4 5 1009.3 1009.0 7.0
26/12:30am 25.5 31.7 24.6 95 0.6 CALM 0 6 0 3 1009.6 1009.3 7.0
26/12:00am 25.3 30.6 24.3 94 0.7 W 4 7 2 4 1009.9 1009.6 7.0
 
Date/Time
CST
Temp
°C
App
Temp
°C
Dew
Point
°C
Rel
Hum
%
Delta-T
°C
Wind Press
QNH
hPa
Press
MSL
hPa
Rain since
9am
mm
Dir  Spd
km/h
Gust
km/h
Spd
kts
Gust
kts
25/11:30pm 25.4 30.0 24.7 96 0.5 S 9 13 5 7 1010.0 1009.7 7.0
25/11:00pm 25.4 30.2 24.2 93 0.8 SW 6 9 3 5 1010.2 1009.9 7.0
25/10:30pm 25.5 30.0 23.9 91 1.1 W 7 11 4 6 1010.1 1009.8 7.0
25/10:00pm 25.5 30.8 24.3 93 0.8 NNE 4 9 2 5 1010.0 1009.7 7.0
25/09:30pm 25.5 29.6 24.5 94 0.7 NE 11 15 6 8 1010.0 1009.7 7.0
25/09:00pm 25.4 28.8 24.0 92 1.0 NNW 13 17 7 9 1009.5 1009.2 7.0
25/08:30pm 25.0 28.4 23.4 91 1.1 N 11 15 6 8 1009.5 1009.2 7.0
25/08:00pm 24.5 28.0 23.5 94 0.7 N 11 15 6 8 1009.4 1009.1 7.0
25/07:39pm 24.7 27.5 23.7 94 0.7 NNE 15 22 8 12 1009.1 1008.8 7.0
25/07:37pm 24.8 28.1 23.8 94 0.7 NNE 13 20 7 11 1009.1 1008.8 7.0
25/07:30pm 25.2 28.8 24.3 95 0.6 NNE 13 19 7 10 1009.3 1009.0 7.0
25/07:20pm 25.3 28.2 23.9 92 1.0 SE 15 32 8 17 1009.3 1009.0 6.8
25/07:11pm 25.5 27.4 23.7 90 1.2 SE 20 35 11 19 1009.0 1008.7 2.2
25/07:00pm 28.7 29.6 22.7 70 4.1 ESE 22 39 12 21 1008.5 1008.2 0.0
25/06:43pm 31.2 32.8 19.9 51 7.5 ENE 11 59 6 32 1008.2 1007.9 0.0
25/06:30pm 33.6 36.8 21.7 49 8.1 N 7 9 4 5 1007.4 1007.1 0.0
25/06:00pm 35.0 38.0 20.9 43 9.5 NNW 6 11 3 6 1006.7 1006.4 0.0

Other Formats:

Comma delimited format used in spreadsheet applications
http://www.bom.gov.au/fwo/IDD60801/IDD60801.94239.axf

JavaScript Object Notation format (JSON) in row-major order
http://www.bom.gov.au/fwo/IDD60801/IDD60801.94239.json